createdAt,value
2022-10-13T00:01:22.452Z,48.40
2022-10-13T00:03:51.008Z,50.30
2022-10-13T00:06:26.438Z,55.20
2022-10-13T00:08:56.800Z,42.60
2022-10-13T00:11:27.571Z,48.90
2022-10-13T00:13:58.454Z,49.00
2022-10-13T00:16:27.885Z,44.30
2022-10-13T00:18:55.844Z,46.30
2022-10-13T00:21:26.321Z,46.80
2022-10-13T00:23:55.575Z,51.40
2022-10-13T00:26:25.447Z,44.60
2022-10-13T00:28:55.245Z,39.90
2022-10-13T00:31:26.786Z,39.50
2022-10-13T00:33:56.060Z,42.50
2022-10-13T00:36:24.833Z,47.50
2022-10-13T00:38:53.651Z,43.80
2022-10-13T00:41:22.209Z,43.80
2022-10-13T00:44:02.733Z,40.50
2022-10-13T00:46:36.403Z,43.70
2022-10-13T00:49:14.601Z,48.70
2022-10-13T00:51:50.750Z,46.10
2022-10-13T00:54:24.360Z,41.40
2022-10-13T00:56:54.234Z,40.50
2022-10-13T00:59:27.575Z,47.10
2022-10-13T01:01:59.678Z,44.60
2022-10-13T01:04:44.172Z,37.50
2022-10-13T01:07:15.170Z,41.90
2022-10-13T01:09:43.508Z,44.30
2022-10-13T01:12:24.787Z,40.70
2022-10-13T01:15:02.607Z,37.80
2022-10-13T01:17:36.479Z,37.20
2022-10-13T01:20:26.390Z,42.20
2022-10-13T01:23:15.541Z,41.30
2022-10-13T01:26:23.955Z,36.10
2022-10-13T01:29:12.161Z,38.40
2022-10-13T01:31:58.621Z,38.60
2022-10-13T01:34:32.816Z,34.90
2022-10-13T01:37:07.582Z,37.80
2022-10-13T01:39:43.441Z,40.30
2022-10-13T01:42:22.424Z,34.70
2022-10-13T01:45:01.860Z,34.30
2022-10-13T01:47:34.069Z,36.10
2022-10-13T01:50:03.376Z,36.60
2022-10-13T01:52:37.338Z,35.90
2022-10-13T01:55:11.960Z,29.90
2022-10-13T01:57:42.224Z,34.00
2022-10-13T02:00:12.148Z,30.90
2022-10-13T02:03:17.787Z,41.10
2022-10-13T02:05:55.075Z,47.50
2022-10-13T02:08:53.524Z,36.60
2022-10-13T02:11:22.951Z,39.30
2022-10-13T02:14:16.740Z,40.40
2022-10-13T02:16:47.204Z,34.20
2022-10-13T02:19:17.826Z,38.00
2022-10-13T02:21:47.281Z,35.30
2022-10-13T02:24:15.298Z,33.70
2022-10-13T02:26:43.746Z,31.90
2022-10-13T02:29:14.811Z,34.10
2022-10-13T02:31:44.992Z,26.80
2022-10-13T02:34:14.334Z,25.30
2022-10-13T02:36:42.624Z,31.40
2022-10-13T02:39:11.339Z,32.80
2022-10-13T02:41:39.607Z,35.60
2022-10-13T02:44:07.710Z,29.10
2022-10-13T02:46:37.317Z,29.50
2022-10-13T02:49:05.290Z,31.40
2022-10-13T02:51:36.285Z,24.90
2022-10-13T02:54:08.212Z,28.60
2022-10-13T02:56:36.097Z,26.40
2022-10-13T02:59:04.300Z,27.90
2022-10-13T03:01:33.367Z,26.60
2022-10-13T03:04:01.266Z,27.20
2022-10-13T03:06:29.344Z,22.90
2022-10-13T03:08:57.775Z,24.80
2022-10-13T03:11:25.889Z,25.30
2022-10-13T03:13:54.374Z,23.00
2022-10-13T03:16:22.624Z,27.00
2022-10-13T03:18:50.395Z,24.90
2022-10-13T03:21:18.239Z,24.20
2022-10-13T03:23:46.606Z,25.20
2022-10-13T03:26:15.760Z,23.00
2022-10-13T03:28:43.686Z,21.60
2022-10-13T03:31:12.916Z,30.30
2022-10-13T03:33:41.113Z,20.60
2022-10-13T03:36:09.328Z,26.40
2022-10-13T03:38:37.965Z,28.00
2022-10-13T03:41:07.821Z,25.10
2022-10-13T03:43:36.125Z,28.90
2022-10-13T03:46:06.788Z,24.50
2022-10-13T03:48:36.329Z,24.70
2022-10-13T03:51:16.424Z,23.70
2022-10-13T03:53:51.444Z,22.20
2022-10-13T03:56:22.949Z,27.20
2022-10-13T03:59:00.311Z,24.90
2022-10-13T04:01:30.482Z,24.20
2022-10-13T04:04:02.351Z,23.80
2022-10-13T04:06:31.865Z,29.90
2022-10-13T04:09:00.164Z,20.60
2022-10-13T04:11:28.153Z,21.10
2022-10-13T04:13:58.217Z,23.00
2022-10-13T04:16:29.979Z,22.70
2022-10-13T04:19:02.100Z,20.50
2022-10-13T04:21:34.272Z,21.20
2022-10-13T04:24:03.735Z,20.50
2022-10-13T04:26:34.679Z,20.20
2022-10-13T04:29:10.004Z,23.30
2022-10-13T04:31:40.518Z,20.80
2022-10-13T04:34:08.630Z,20.90
2022-10-13T04:36:36.676Z,22.50
2022-10-13T04:39:05.074Z,27.80
2022-10-13T04:41:34.452Z,22.20
2022-10-13T04:44:02.721Z,22.90
2022-10-13T04:46:30.996Z,21.50
2022-10-13T04:48:58.898Z,24.30
2022-10-13T04:51:30.640Z,36.90
2022-10-13T04:54:01.190Z,25.50
2022-10-13T04:56:29.451Z,28.40
2022-10-13T04:59:06.098Z,27.50
2022-10-13T05:01:36.045Z,27.20
2022-10-13T05:04:07.636Z,24.10
2022-10-13T05:06:58.802Z,25.90
2022-10-13T05:09:27.702Z,30.20
2022-10-13T05:11:55.577Z,29.50
2022-10-13T05:14:23.740Z,26.20
2022-10-13T05:16:51.949Z,20.60
2022-10-13T05:19:20.547Z,28.30
2022-10-13T05:21:50.651Z,32.40
2022-10-13T05:24:20.949Z,24.10
2022-10-13T05:26:50.615Z,26.20
2022-10-13T05:29:19.045Z,29.60
2022-10-13T05:31:47.413Z,30.30
2022-10-13T05:34:15.308Z,26.10
2022-10-13T05:36:43.479Z,25.10
2022-10-13T05:39:11.642Z,28.10
2022-10-13T05:41:39.617Z,24.50
2022-10-13T05:44:14.804Z,27.20
2022-10-13T05:46:54.397Z,24.70
2022-10-13T05:49:22.789Z,25.20
2022-10-13T05:51:55.300Z,39.40
2022-10-13T05:54:33.770Z,49.00
2022-10-13T05:57:08.940Z,32.50
2022-10-13T05:59:46.253Z,51.80
2022-10-13T06:02:17.190Z,48.60
2022-10-13T06:04:48.242Z,46.00
2022-10-13T06:07:17.056Z,45.20
2022-10-13T06:09:44.949Z,45.90
2022-10-13T06:12:13.221Z,36.20
2022-10-13T06:14:41.876Z,45.40
2022-10-13T06:17:12.897Z,54.00
2022-10-13T06:19:45.582Z,61.60
2022-10-13T06:22:13.417Z,32.50
2022-10-13T06:24:41.460Z,32.40
2022-10-13T06:27:11.161Z,36.00
2022-10-13T06:29:39.683Z,32.90
2022-10-13T06:32:07.521Z,29.40
2022-10-13T06:34:35.757Z,33.50
2022-10-13T06:37:03.943Z,32.30
2022-10-13T06:39:31.993Z,37.30
2022-10-13T06:42:02.261Z,32.20
2022-10-13T06:44:37.352Z,26.10
2022-10-13T06:47:05.937Z,32.30
2022-10-13T06:49:34.190Z,28.90
2022-10-13T06:52:02.606Z,34.20
2022-10-13T06:54:31.083Z,34.50
2022-10-13T06:56:58.898Z,26.90
2022-10-13T06:59:27.963Z,29.90
2022-10-13T07:01:56.377Z,23.80
2022-10-13T07:04:25.942Z,30.00
2022-10-13T07:06:56.133Z,22.50
2022-10-13T07:09:24.424Z,23.30
2022-10-13T07:11:52.492Z,26.60
2022-10-13T07:14:20.485Z,23.50
2022-10-13T07:16:49.515Z,21.60
2022-10-13T07:19:17.423Z,21.80
2022-10-13T07:21:45.493Z,22.80
2022-10-13T07:24:13.735Z,21.00
2022-10-13T07:26:41.848Z,19.70
2022-10-13T07:29:10.110Z,22.70
2022-10-13T07:31:38.751Z,21.50
2022-10-13T07:34:08.529Z,21.30
2022-10-13T07:36:37.934Z,19.20
2022-10-13T07:39:06.497Z,21.70
2022-10-13T07:41:36.939Z,21.70
2022-10-13T07:44:05.245Z,17.70
2022-10-13T07:46:39.135Z,17.80
2022-10-13T07:49:06.942Z,18.50
2022-10-13T07:51:35.075Z,17.80
2022-10-13T07:54:03.080Z,17.80
2022-10-13T07:56:36.135Z,18.70
2022-10-13T07:59:05.665Z,15.40
2022-10-13T08:01:33.767Z,18.00
2022-10-13T08:04:01.696Z,19.70
2022-10-13T08:06:29.980Z,17.10
2022-10-13T08:09:00.923Z,18.60
2022-10-13T08:11:29.149Z,16.10
2022-10-13T08:14:01.262Z,18.30
2022-10-13T08:16:31.131Z,20.90
2022-10-13T08:18:59.563Z,20.10
2022-10-13T08:21:53.264Z,17.90
2022-10-13T08:24:17.670Z,17.10
2022-10-13T08:26:46.771Z,16.80
2022-10-13T08:29:23.394Z,18.50
2022-10-13T08:31:53.929Z,17.70
2022-10-13T08:34:23.617Z,19.20
2022-10-13T08:36:54.732Z,19.70
2022-10-13T08:39:25.521Z,21.80
2022-10-13T08:41:56.673Z,15.70
2022-10-13T08:47:45.997Z,20.50
2022-10-13T08:50:18.303Z,20.30
2022-10-13T08:52:55.613Z,17.20
2022-10-13T08:55:40.492Z,15.40
2022-10-13T08:58:21.770Z,18.00
2022-10-13T09:01:10.264Z,15.90
2022-10-13T09:03:53.004Z,13.80
2022-10-13T09:06:29.050Z,14.30
2022-10-13T09:09:12.000Z,12.30
2022-10-13T09:11:46.476Z,18.90
2022-10-13T09:14:24.732Z,15.00
2022-10-13T09:16:58.234Z,14.30
2022-10-13T09:19:36.532Z,14.50
2022-10-13T09:22:34.051Z,13.40
2022-10-13T09:25:08.555Z,16.90
2022-10-13T09:27:55.091Z,13.70
2022-10-13T09:30:28.956Z,13.00
2022-10-13T09:33:09.715Z,10.10
2022-10-13T09:35:47.487Z,14.70
2022-10-13T09:38:15.794Z,11.80
2022-10-13T09:40:56.008Z,12.00
2022-10-13T09:43:38.303Z,10.60
2022-10-13T09:46:21.259Z,10.80
2022-10-13T09:48:52.324Z,14.70
2022-10-13T09:51:45.426Z,8.80
2022-10-13T09:54:35.037Z,11.50
2022-10-13T09:57:12.925Z,12.40
2022-10-13T09:59:47.423Z,12.40
2022-10-13T10:02:28.537Z,10.60
2022-10-13T10:05:01.539Z,15.50
2022-10-13T10:07:33.198Z,62.90
2022-10-13T10:10:06.567Z,21.30
2022-10-13T10:12:37.701Z,15.50
2022-10-13T10:15:20.349Z,14.60
2022-10-13T10:17:56.111Z,23.60
2022-10-13T10:20:39.468Z,18.30
2022-10-13T10:23:13.785Z,14.30
2022-10-13T10:25:45.929Z,13.20
2022-10-13T10:28:36.063Z,13.00
2022-10-13T10:31:18.636Z,13.20
2022-10-13T10:34:22.059Z,15.30
2022-10-13T10:37:08.554Z,11.80
2022-10-13T10:40:15.228Z,8.20
2022-10-13T10:42:48.425Z,13.20
2022-10-13T10:45:27.639Z,8.40
2022-10-13T10:48:00.910Z,12.40
2022-10-13T10:50:31.438Z,8.90
2022-10-13T10:53:16.398Z,6.90
2022-10-13T10:56:22.275Z,8.80
2022-10-13T10:59:25.434Z,7.90
2022-10-13T11:02:08.950Z,9.00
2022-10-13T11:04:43.124Z,8.70
2022-10-13T11:07:34.257Z,9.40
2022-10-13T11:10:26.448Z,8.50
2022-10-13T11:12:55.427Z,10.50
2022-10-13T11:15:29.206Z,6.80
2022-10-13T11:17:57.845Z,7.90
2022-10-13T11:20:25.964Z,10.70
2022-10-13T11:23:00.363Z,14.20
2022-10-13T11:25:45.049Z,10.50
2022-10-13T11:28:22.371Z,8.50
2022-10-13T11:30:51.111Z,10.20
2022-10-13T11:33:38.357Z,11.20
2022-10-13T11:36:32.890Z,10.80
2022-10-13T11:39:13.111Z,10.10
2022-10-13T11:42:26.145Z,13.90
2022-10-13T11:44:57.653Z,17.40
2022-10-13T11:47:44.442Z,25.00
2022-10-13T11:50:34.556Z,19.40
2022-10-13T11:53:05.399Z,17.90
2022-10-13T11:55:55.362Z,13.60
2022-10-13T11:58:42.602Z,12.70
2022-10-13T12:01:16.537Z,16.50
2022-10-13T12:03:46.871Z,21.00
2022-10-13T12:06:34.388Z,10.60
2022-10-13T12:09:07.506Z,14.50
2022-10-13T12:11:37.937Z,20.80
2022-10-13T12:17:24.070Z,17.50
2022-10-13T12:19:54.306Z,12.70
2022-10-13T12:22:22.452Z,13.20
2022-10-13T12:24:59.527Z,13.60
2022-10-13T12:27:29.619Z,10.20
2022-10-13T12:29:57.768Z,9.10
2022-10-13T12:32:28.783Z,10.50
2022-10-13T12:35:09.926Z,8.30
2022-10-13T12:37:38.477Z,10.30
2022-10-13T12:40:09.573Z,9.60
2022-10-13T12:42:38.454Z,7.70
2022-10-13T12:45:07.280Z,9.50
2022-10-13T12:47:44.675Z,9.90
2022-10-13T12:50:31.049Z,9.10
2022-10-13T12:53:04.996Z,10.60
2022-10-13T12:55:33.089Z,13.00
2022-10-13T12:58:03.211Z,10.60
2022-10-13T13:00:31.672Z,11.10
2022-10-13T13:03:01.190Z,11.90
2022-10-13T13:05:39.634Z,11.40
2022-10-13T13:08:32.069Z,9.10
2022-10-13T13:11:02.542Z,8.70
2022-10-13T13:13:31.156Z,9.10
2022-10-13T13:16:31.604Z,8.90
2022-10-13T13:18:59.711Z,10.40
2022-10-13T13:21:30.711Z,8.80
2022-10-13T13:23:59.470Z,9.30
2022-10-13T13:26:29.453Z,10.80
2022-10-13T13:28:57.475Z,8.80
2022-10-13T13:31:26.335Z,10.50
2022-10-13T13:33:54.286Z,6.70
2022-10-13T13:36:25.516Z,11.70
2022-10-13T13:38:55.085Z,10.60
2022-10-13T13:41:28.111Z,12.10
2022-10-13T13:44:00.248Z,11.10
2022-10-13T13:46:29.476Z,9.60
2022-10-13T13:48:57.582Z,11.20
2022-10-13T13:51:25.633Z,10.90
2022-10-13T13:53:53.699Z,11.10
2022-10-13T13:56:21.679Z,10.60
2022-10-13T13:58:49.777Z,9.60
2022-10-13T14:01:17.765Z,9.10
2022-10-13T14:03:45.713Z,10.30
2022-10-13T14:06:20.433Z,11.80
2022-10-13T14:08:51.340Z,10.80
2022-10-13T14:11:20.427Z,11.60
2022-10-13T14:13:49.053Z,14.40
2022-10-13T14:16:26.587Z,14.80
2022-10-13T14:18:59.446Z,13.00
2022-10-13T14:21:30.332Z,12.50
2022-10-13T14:24:02.032Z,10.90
2022-10-13T14:26:30.901Z,9.30
2022-10-13T14:28:58.738Z,12.30
2022-10-13T14:31:26.780Z,17.40
2022-10-13T14:33:55.145Z,15.00
2022-10-13T14:36:24.906Z,12.40
2022-10-13T14:38:53.330Z,8.30
2022-10-13T14:41:21.525Z,9.50
2022-10-13T14:43:54.788Z,10.20
2022-10-13T14:46:23.828Z,11.30
2022-10-13T14:48:51.819Z,12.30
2022-10-13T14:51:20.219Z,21.60
2022-10-13T14:53:48.553Z,14.00
2022-10-13T14:56:27.509Z,9.80
2022-10-13T14:59:00.179Z,12.60
2022-10-13T15:01:33.687Z,15.00
2022-10-13T15:04:02.192Z,17.70
2022-10-13T15:06:32.936Z,19.20
2022-10-13T15:09:01.032Z,13.40
2022-10-13T15:11:29.500Z,11.70
2022-10-13T15:13:57.498Z,15.00
2022-10-13T15:16:28.868Z,14.60
2022-10-13T15:18:57.312Z,9.00
2022-10-13T15:21:26.065Z,14.10
2022-10-13T15:23:54.036Z,14.40
2022-10-13T15:26:22.451Z,9.90
2022-10-13T15:28:52.673Z,13.90
2022-10-13T15:31:22.141Z,14.90
2022-10-13T15:33:52.987Z,10.40
2022-10-13T15:36:23.012Z,12.90
2022-10-13T15:38:53.918Z,14.60
2022-10-13T15:41:23.719Z,19.10
2022-10-13T15:43:51.677Z,14.00
2022-10-13T15:46:22.499Z,13.10
2022-10-13T15:48:53.597Z,11.70
2022-10-13T15:51:24.469Z,12.30
2022-10-13T15:53:52.451Z,15.70
2022-10-13T15:56:21.075Z,18.30
2022-10-13T15:58:49.305Z,15.20
2022-10-13T16:01:17.259Z,16.40
2022-10-13T16:03:45.543Z,18.00
2022-10-13T16:06:14.646Z,15.10
2022-10-13T16:08:45.561Z,17.20
2022-10-13T16:11:16.733Z,15.80
2022-10-13T16:13:49.671Z,17.70
2022-10-13T16:16:18.381Z,14.10
2022-10-13T16:18:46.974Z,13.20
2022-10-13T16:21:19.076Z,17.10
2022-10-13T16:23:48.255Z,14.80
2022-10-13T16:26:17.963Z,15.80
2022-10-13T16:28:48.258Z,17.00
2022-10-13T16:31:17.629Z,19.80
2022-10-13T16:33:46.347Z,17.50
2022-10-13T16:36:17.730Z,15.30
2022-10-13T16:38:47.514Z,16.10
2022-10-13T16:41:18.574Z,22.60
2022-10-13T16:43:48.103Z,19.60
2022-10-13T16:46:18.825Z,23.90
2022-10-13T16:48:48.210Z,34.00
2022-10-13T16:51:22.604Z,38.50
2022-10-13T16:53:57.656Z,46.00
2022-10-13T16:56:31.362Z,59.20
2022-10-13T16:59:02.104Z,49.40
2022-10-13T17:01:34.581Z,75.70
2022-10-13T17:04:03.664Z,70.60
2022-10-13T17:06:32.325Z,85.30
2022-10-13T17:09:03.443Z,78.20
2022-10-13T17:11:33.376Z,77.80
2022-10-13T17:14:01.984Z,89.30
2022-10-13T17:16:34.289Z,83.60
2022-10-13T17:19:02.923Z,74.60
2022-10-13T17:21:34.429Z,65.50
2022-10-13T17:24:02.372Z,65.30
2022-10-13T17:26:30.372Z,55.10
2022-10-13T17:28:58.754Z,50.80
2022-10-13T17:31:26.964Z,52.70
2022-10-13T17:33:55.046Z,52.30
2022-10-13T17:36:29.272Z,47.00
2022-10-13T17:39:04.388Z,48.50
2022-10-13T17:41:33.883Z,56.90
2022-10-13T17:44:02.619Z,61.60
2022-10-13T17:46:37.498Z,53.80
2022-10-13T17:49:10.107Z,63.90
2022-10-13T17:51:43.431Z,109.70
2022-10-13T17:54:15.942Z,94.00
2022-10-13T17:56:45.799Z,148.10
2022-10-13T17:59:15.790Z,97.80
2022-10-13T18:01:45.122Z,176.80
2022-10-13T18:04:25.306Z,47.10
2022-10-13T18:06:53.195Z,82.60
2022-10-13T18:09:24.332Z,70.50
2022-10-13T18:11:54.188Z,37.40
2022-10-13T18:14:24.811Z,35.80
2022-10-13T18:16:53.319Z,33.00
2022-10-13T18:19:22.276Z,29.20
2022-10-13T18:21:53.043Z,27.90
2022-10-13T18:24:24.882Z,33.00
2022-10-13T18:26:56.365Z,37.00
2022-10-13T18:29:24.879Z,29.30
2022-10-13T18:31:56.730Z,27.00
2022-10-13T18:34:24.995Z,28.10
2022-10-13T18:36:56.827Z,30.40
2022-10-13T18:39:27.939Z,25.20
2022-10-13T18:41:57.367Z,24.00
2022-10-13T18:44:32.721Z,27.40
2022-10-13T18:47:00.930Z,25.30
2022-10-13T18:49:31.906Z,31.10
2022-10-13T18:52:01.874Z,26.90
2022-10-13T18:54:30.982Z,31.20
2022-10-13T18:56:59.299Z,26.90
2022-10-13T18:59:27.368Z,29.50
2022-10-13T19:01:55.413Z,29.70
2022-10-13T19:04:24.113Z,33.40
2022-10-13T19:06:53.664Z,28.20
2022-10-13T19:09:21.742Z,27.50
2022-10-13T19:11:50.178Z,28.10
2022-10-13T19:14:19.483Z,30.10
2022-10-13T19:16:47.631Z,22.70
2022-10-13T19:19:15.625Z,25.60
2022-10-13T19:21:43.720Z,29.80
2022-10-13T19:24:12.409Z,31.20
2022-10-13T19:26:40.372Z,31.10
2022-10-13T19:29:11.897Z,30.80
2022-10-13T19:31:41.664Z,24.90
2022-10-13T19:34:12.571Z,23.30
2022-10-13T19:36:43.392Z,33.00
2022-10-13T19:39:21.477Z,25.50
2022-10-13T19:41:51.526Z,25.10
2022-10-13T19:44:21.081Z,27.80
2022-10-13T19:46:49.554Z,25.80
2022-10-13T19:49:20.750Z,25.40
2022-10-13T19:51:50.510Z,24.30
2022-10-13T19:54:20.146Z,25.70
2022-10-13T19:56:51.009Z,31.90
2022-10-13T19:59:19.108Z,23.10
2022-10-13T20:01:47.557Z,22.40
2022-10-13T20:04:18.714Z,31.50
2022-10-13T20:06:50.764Z,23.30
2022-10-13T20:09:20.011Z,30.90
2022-10-13T20:11:50.749Z,29.00
2022-10-13T20:14:19.241Z,30.90
2022-10-13T20:16:48.176Z,29.50
2022-10-13T20:19:19.490Z,40.40
2022-10-13T20:21:48.582Z,31.50
2022-10-13T20:24:16.721Z,30.80
2022-10-13T20:26:44.841Z,31.00
2022-10-13T20:29:12.992Z,32.80
2022-10-13T20:31:41.703Z,29.80
2022-10-13T20:34:10.958Z,28.30
2022-10-13T20:36:39.434Z,26.30
2022-10-13T20:39:09.257Z,32.20
2022-10-13T20:41:37.690Z,28.50
2022-10-13T20:44:06.589Z,29.40
2022-10-13T20:46:34.784Z,28.90
2022-10-13T20:49:13.127Z,24.10
2022-10-13T20:51:43.289Z,27.00
2022-10-13T20:54:14.281Z,28.20
2022-10-13T20:56:42.888Z,32.50
2022-10-13T20:59:15.132Z,37.70
2022-10-13T21:01:43.745Z,37.20
2022-10-13T21:04:12.434Z,35.60
2022-10-13T21:06:42.017Z,36.00
2022-10-13T21:09:10.835Z,35.50
2022-10-13T21:11:40.251Z,32.50
2022-10-13T21:14:09.900Z,34.10
2022-10-13T21:16:41.011Z,40.00
2022-10-13T21:19:12.934Z,44.70
2022-10-13T21:21:41.084Z,48.30
2022-10-13T21:24:10.550Z,65.30
2022-10-13T21:26:39.924Z,59.10
2022-10-13T21:29:16.262Z,47.00
2022-10-13T21:31:44.546Z,42.40
2022-10-13T21:34:12.567Z,36.90
2022-10-13T21:36:44.408Z,33.70
2022-10-13T21:39:14.722Z,28.20
2022-10-13T21:41:43.182Z,32.30
2022-10-13T21:44:14.160Z,33.90
2022-10-13T21:46:42.297Z,29.00
2022-10-13T21:49:10.641Z,28.40
2022-10-13T21:51:40.245Z,27.00
2022-10-13T21:54:11.884Z,29.80
2022-10-13T21:56:40.759Z,22.90
2022-10-13T21:59:10.353Z,25.60
2022-10-13T22:01:39.290Z,25.10
2022-10-13T22:04:14.347Z,24.20
2022-10-13T22:06:42.937Z,26.20
2022-10-13T22:09:11.497Z,24.00
2022-10-13T22:11:40.121Z,27.10
2022-10-13T22:14:12.634Z,27.20
2022-10-13T22:16:45.064Z,21.90
2022-10-13T22:19:15.121Z,27.00
2022-10-13T22:21:46.203Z,26.00
2022-10-13T22:24:18.787Z,27.60
2022-10-13T22:26:48.775Z,25.80
2022-10-13T22:29:20.452Z,22.60
2022-10-13T22:31:50.728Z,28.50
2022-10-13T22:34:19.095Z,26.30
2022-10-13T22:36:47.634Z,25.40
2022-10-13T22:39:16.099Z,28.70
2022-10-13T22:41:44.736Z,33.20
2022-10-13T22:44:13.767Z,36.70
2022-10-13T22:46:41.970Z,44.70
2022-10-13T22:49:14.965Z,52.40
2022-10-13T22:51:43.060Z,54.30
2022-10-13T22:54:12.550Z,57.70
2022-10-13T22:56:41.114Z,39.20
2022-10-13T22:59:12.137Z,28.50
2022-10-13T23:01:40.480Z,33.40
2022-10-13T23:04:09.114Z,30.20
2022-10-13T23:06:37.292Z,27.10
2022-10-13T23:09:10.881Z,25.20
2022-10-13T23:11:39.705Z,24.10
2022-10-13T23:14:09.219Z,29.00
2022-10-13T23:16:37.479Z,24.30
2022-10-13T23:19:05.683Z,29.00
2022-10-13T23:21:33.801Z,23.40
2022-10-13T23:24:06.625Z,22.90
2022-10-13T23:26:35.488Z,21.90
2022-10-13T23:29:05.043Z,24.80
2022-10-13T23:31:33.593Z,24.90
2022-10-13T23:34:02.068Z,29.00
2022-10-13T23:36:32.084Z,23.70
2022-10-13T23:39:03.834Z,23.30
2022-10-13T23:41:34.388Z,23.90
2022-10-13T23:44:02.588Z,25.90
2022-10-13T23:46:31.075Z,23.60
2022-10-13T23:48:59.241Z,26.80
2022-10-13T23:51:27.226Z,20.20
2022-10-13T23:53:55.590Z,21.50
2022-10-13T23:56:24.147Z,23.20
2022-10-13T23:58:51.952Z,26.30
